PPNLR SBCF-SBVT
Flight info
| Callsign | PPNLR |
|---|---|
| Flight time | 0h 40m |
| Altitude | 33000 |
| Route | EVPAD UZ35 KIGOK |
| Aircraft | E35L/M-SABDFGRW/S |
Departure
| Time | 2026-04-26 20:50 |
|---|---|
| Airport | Tancredo Neves International Airport (SBCF) |
Arrival
| Time | 2026-04-26 21:30 |
|---|---|
| Airport | Eurico de Aguiar Salles International Airport (SBVT) |
| Time | Latitude | Longitude | Altitude | Speed | Heading |
|---|---|---|---|---|---|
| 2026-04-26 20:28 | -19.63032 | -43.96867 | 2746 ft | 0 kts | 230° |
| 2026-04-26 20:42 | -19.63031 | -43.96865 | 2746 ft | 1 kts | 230° |
| 2026-04-26 20:42 | -19.63021 | -43.96853 | 2746 ft | 2 kts | 230° |
| 2026-04-26 20:42 | -19.63013 | -43.96840 | 2746 ft | 2 kts | 252° |
| 2026-04-26 20:43 | -19.63012 | -43.96825 | 2746 ft | 2 kts | 281° |
| 2026-04-26 20:43 | -19.63018 | -43.96811 | 2746 ft | 2 kts | 309° |
| 2026-04-26 20:43 | -19.63023 | -43.96805 | 2746 ft | 0 kts | 319° |
| 2026-04-26 20:44 | -19.63017 | -43.96811 | 2746 ft | 3 kts | 319° |
| 2026-04-26 20:45 | -19.62990 | -43.96836 | 2745 ft | 6 kts | 319° |
| 2026-04-26 20:45 | -19.62949 | -43.96874 | 2745 ft | 9 kts | 319° |
| 2026-04-26 20:45 | -19.62895 | -43.96924 | 2745 ft | 11 kts | 319° |
| 2026-04-26 20:45 | -19.62829 | -43.96988 | 2745 ft | 14 kts | 308° |
| 2026-04-26 20:46 | -19.62813 | -43.97078 | 2745 ft | 13 kts | 238° |
| 2026-04-26 20:46 | -19.62824 | -43.97168 | 2745 ft | 14 kts | 315° |
| 2026-04-26 20:46 | -19.62742 | -43.97245 | 2745 ft | 17 kts | 317° |
| 2026-04-26 20:46 | -19.62645 | -43.97334 | 2745 ft | 19 kts | 318° |
| 2026-04-26 20:47 | -19.62539 | -43.97433 | 2745 ft | 21 kts | 319° |
| 2026-04-26 20:47 | -19.62460 | -43.97506 | 2745 ft | 23 kts | 319° |
| 2026-04-26 20:47 | -19.62309 | -43.97646 | 2745 ft | 12 kts | 319° |
| 2026-04-26 20:47 | -19.62298 | -43.97718 | 2745 ft | 5 kts | 229° |
| 2026-04-26 20:48 | -19.62301 | -43.97722 | 2745 ft | 0 kts | 229° |
| 2026-04-26 20:48 | -19.62310 | -43.97733 | 2745 ft | 7 kts | 229° |
| 2026-04-26 20:48 | -19.62361 | -43.97802 | 2745 ft | 10 kts | 219° |
| 2026-04-26 20:49 | -19.62398 | -43.97789 | 2745 ft | 0 kts | 139° |
| 2026-04-26 20:49 | -19.62466 | -43.97726 | 2745 ft | 50 kts | 139° |
| 2026-04-26 20:49 | -19.62971 | -43.97259 | 2745 ft | 137 kts | 139° |
| 2026-04-26 20:49 | -19.63837 | -43.96439 | 2881 ft | 189 kts | 137° |
| 2026-04-26 20:50 | -19.64866 | -43.95405 | 3484 ft | 218 kts | 136° |
| 2026-04-26 20:50 | -19.65966 | -43.94251 | 4415 ft | 229 kts | 136° |
| 2026-04-26 20:50 | -19.67059 | -43.93106 | 5757 ft | 222 kts | 135° |
| 2026-04-26 20:50 | -19.68136 | -43.92014 | 6846 ft | 232 kts | 139° |
| 2026-04-26 20:51 | -19.69506 | -43.90790 | 7284 ft | 275 kts | 142° |
| 2026-04-26 20:51 | -19.71045 | -43.89595 | 8507 ft | 281 kts | 146° |
| 2026-04-26 20:51 | -19.72662 | -43.88441 | 9776 ft | 284 kts | 141° |
| 2026-04-26 20:51 | -19.74069 | -43.86956 | 10673 ft | 294 kts | 138° |
| 2026-04-26 20:52 | -19.75648 | -43.85509 | 11559 ft | 305 kts | 139° |
| 2026-04-26 20:52 | -19.77273 | -43.84005 | 12542 ft | 312 kts | 139° |
| 2026-04-26 20:52 | -19.78929 | -43.82473 | 13435 ft | 320 kts | 139° |
| 2026-04-26 20:52 | -19.80654 | -43.80896 | 14035 ft | 330 kts | 142° |
| 2026-04-26 20:53 | -19.82597 | -43.79536 | 14622 ft | 338 kts | 147° |
| 2026-04-26 20:53 | -19.84578 | -43.78190 | 15214 ft | 344 kts | 147° |
| 2026-04-26 20:53 | -19.86619 | -43.76803 | 15756 ft | 353 kts | 148° |
| 2026-04-26 20:53 | -19.88708 | -43.75382 | 16476 ft | 358 kts | 148° |
| 2026-04-26 20:54 | -19.90864 | -43.73916 | 17250 ft | 363 kts | 148° |
| 2026-04-26 20:54 | -19.92831 | -43.72227 | 17947 ft | 370 kts | 130° |
| 2026-04-26 20:54 | -19.94126 | -43.69869 | 18622 ft | 374 kts | 110° |
| 2026-04-26 20:54 | -19.94997 | -43.67282 | 19311 ft | 377 kts | 111° |
| 2026-04-26 20:55 | -19.95931 | -43.64659 | 20019 ft | 380 kts | 110° |
| 2026-04-26 20:55 | -19.96876 | -43.62007 | 20682 ft | 384 kts | 110° |
| 2026-04-26 20:55 | -19.97827 | -43.59340 | 21293 ft | 388 kts | 110° |
| 2026-04-26 20:55 | -19.98718 | -43.56632 | 21905 ft | 391 kts | 103° |
| 2026-04-26 20:56 | -19.98893 | -43.53780 | 22481 ft | 393 kts | 86° |
| 2026-04-26 20:56 | -19.98734 | -43.50853 | 23115 ft | 397 kts | 86° |
| 2026-04-26 20:56 | -19.98585 | -43.47898 | 23718 ft | 401 kts | 86° |
| 2026-04-26 20:56 | -19.98434 | -43.44929 | 24307 ft | 406 kts | 86° |
| 2026-04-26 20:57 | -19.98279 | -43.41872 | 24919 ft | 410 kts | 86° |
| 2026-04-26 20:57 | -19.98124 | -43.38833 | 25544 ft | 413 kts | 86° |
| 2026-04-26 20:57 | -19.97968 | -43.35793 | 26322 ft | 412 kts | 86° |
| 2026-04-26 20:57 | -19.97812 | -43.32758 | 27119 ft | 410 kts | 85° |
| 2026-04-26 20:58 | -19.97655 | -43.29710 | 27909 ft | 408 kts | 85° |
| 2026-04-26 20:58 | -19.97500 | -43.26709 | 28677 ft | 406 kts | 85° |
| 2026-04-26 20:58 | -19.97333 | -43.23699 | 29408 ft | 405 kts | 85° |
| 2026-04-26 20:58 | -19.97157 | -43.20763 | 30128 ft | 403 kts | 85° |
| 2026-04-26 20:59 | -19.96979 | -43.17774 | 30845 ft | 401 kts | 85° |
| 2026-04-26 20:59 | -19.96803 | -43.14836 | 31563 ft | 399 kts | 85° |
| 2026-04-26 20:59 | -19.96628 | -43.11903 | 32243 ft | 397 kts | 85° |
| 2026-04-26 20:59 | -19.96453 | -43.08982 | 32890 ft | 397 kts | 85° |
| 2026-04-26 21:00 | -19.96274 | -43.06014 | 33098 ft | 409 kts | 85° |
| 2026-04-26 21:00 | -19.96088 | -43.02943 | 33111 ft | 420 kts | 85° |
| 2026-04-26 21:00 | -19.95899 | -42.99805 | 33111 ft | 430 kts | 85° |
| 2026-04-26 21:00 | -19.95885 | -42.96592 | 33099 ft | 442 kts | 93° |
| 2026-04-26 21:01 | -19.96230 | -42.93348 | 33089 ft | 452 kts | 95° |
| 2026-04-26 21:01 | -19.96933 | -42.86557 | 33055 ft | 470 kts | 95° |
| 2026-04-26 21:02 | -19.97644 | -42.79546 | 33034 ft | 486 kts | 95° |
| 2026-04-26 21:02 | -19.98371 | -42.72335 | 33012 ft | 486 kts | 95° |
| 2026-04-26 21:03 | -19.99084 | -42.65229 | 33024 ft | 477 kts | 95° |
| 2026-04-26 21:03 | -19.99779 | -42.58274 | 33035 ft | 470 kts | 95° |
| 2026-04-26 21:04 | -20.00494 | -42.51389 | 33037 ft | 467 kts | 98° |
| 2026-04-26 21:04 | -20.01555 | -42.44579 | 33053 ft | 465 kts | 99° |
| 2026-04-26 21:05 | -20.02576 | -42.37790 | 33074 ft | 464 kts | 99° |
| 2026-04-26 21:05 | -20.03597 | -42.30971 | 33093 ft | 466 kts | 98° |
| 2026-04-26 21:06 | -20.04614 | -42.24146 | 33116 ft | 469 kts | 98° |
| 2026-04-26 21:06 | -20.05648 | -42.17223 | 33119 ft | 473 kts | 101° |
| 2026-04-26 21:07 | -20.06961 | -42.10359 | 33124 ft | 476 kts | 100° |
| 2026-04-26 21:07 | -20.08193 | -42.03515 | 33119 ft | 465 kts | 100° |
| 2026-04-26 21:07 | -20.08797 | -42.00136 | 32918 ft | 459 kts | 100° |
| 2026-04-26 21:08 | -20.09392 | -41.96807 | 32380 ft | 456 kts | 100° |
| 2026-04-26 21:08 | -20.09982 | -41.93498 | 31861 ft | 452 kts | 100° |
| 2026-04-26 21:08 | -20.10565 | -41.90225 | 31342 ft | 448 kts | 100° |
| 2026-04-26 21:08 | -20.11146 | -41.86961 | 30821 ft | 445 kts | 100° |
| 2026-04-26 21:09 | -20.11713 | -41.83770 | 30309 ft | 442 kts | 100° |
| 2026-04-26 21:09 | -20.12285 | -41.80555 | 29791 ft | 438 kts | 100° |
| 2026-04-26 21:09 | -20.12850 | -41.77366 | 29289 ft | 445 kts | 100° |
| 2026-04-26 21:09 | -20.13431 | -41.74087 | 28854 ft | 455 kts | 100° |
| 2026-04-26 21:10 | -20.14019 | -41.70763 | 28492 ft | 464 kts | 101° |
| 2026-04-26 21:10 | -20.14625 | -41.67338 | 28173 ft | 472 kts | 101° |
| 2026-04-26 21:10 | -20.15230 | -41.63912 | 27778 ft | 475 kts | 101° |
| 2026-04-26 21:10 | -20.15841 | -41.60448 | 27281 ft | 474 kts | 101° |
| 2026-04-26 21:11 | -20.16445 | -41.57019 | 26788 ft | 473 kts | 101° |
| 2026-04-26 21:11 | -20.17053 | -41.53568 | 26292 ft | 472 kts | 101° |
| 2026-04-26 21:11 | -20.17646 | -41.50190 | 25802 ft | 466 kts | 101° |
| 2026-04-26 21:11 | -20.18233 | -41.46848 | 25309 ft | 459 kts | 101° |
| 2026-04-26 21:12 | -20.18813 | -41.43538 | 24816 ft | 454 kts | 101° |
| 2026-04-26 21:12 | -20.19386 | -41.40270 | 24323 ft | 449 kts | 101° |
| 2026-04-26 21:12 | -20.19952 | -41.37033 | 23821 ft | 444 kts | 101° |
| 2026-04-26 21:12 | -20.20519 | -41.33790 | 23309 ft | 435 kts | 100° |
| 2026-04-26 21:13 | -20.21058 | -41.30703 | 22744 ft | 422 kts | 100° |
| 2026-04-26 21:13 | -20.21585 | -41.27680 | 21987 ft | 415 kts | 100° |
| 2026-04-26 21:13 | -20.22110 | -41.24666 | 21231 ft | 408 kts | 100° |
| 2026-04-26 21:13 | -20.22618 | -41.21747 | 20492 ft | 402 kts | 100° |
| 2026-04-26 21:14 | -20.23126 | -41.18828 | 19746 ft | 397 kts | 100° |
| 2026-04-26 21:14 | -20.23623 | -41.15964 | 19008 ft | 393 kts | 100° |
| 2026-04-26 21:14 | -20.24121 | -41.13094 | 18263 ft | 388 kts | 100° |
| 2026-04-26 21:14 | -20.24604 | -41.10303 | 17534 ft | 385 kts | 100° |
| 2026-04-26 21:15 | -20.25088 | -41.07508 | 16800 ft | 381 kts | 100° |
| 2026-04-26 21:15 | -20.25565 | -41.04752 | 16072 ft | 378 kts | 100° |
| 2026-04-26 21:15 | -20.26037 | -41.02018 | 15353 ft | 375 kts | 100° |
| 2026-04-26 21:15 | -20.26510 | -40.99280 | 14633 ft | 372 kts | 100° |
| 2026-04-26 21:16 | -20.26973 | -40.96597 | 13920 ft | 370 kts | 100° |
| 2026-04-26 21:16 | -20.27433 | -40.93922 | 13204 ft | 367 kts | 100° |
| 2026-04-26 21:16 | -20.27891 | -40.91262 | 12483 ft | 364 kts | 100° |
| 2026-04-26 21:16 | -20.28347 | -40.88609 | 11755 ft | 361 kts | 101° |
| 2026-04-26 21:17 | -20.28796 | -40.85995 | 10998 ft | 355 kts | 101° |
| 2026-04-26 21:17 | -20.29222 | -40.83516 | 10238 ft | 333 kts | 101° |
| 2026-04-26 21:17 | -20.29632 | -40.81127 | 9565 ft | 325 kts | 101° |
| 2026-04-26 21:17 | -20.30032 | -40.78788 | 9064 ft | 320 kts | 101° |
| 2026-04-26 21:18 | -20.30433 | -40.76445 | 8573 ft | 316 kts | 101° |
| 2026-04-26 21:18 | -20.30822 | -40.74171 | 8092 ft | 312 kts | 101° |
| 2026-04-26 21:18 | -20.31210 | -40.71903 | 7608 ft | 309 kts | 101° |
| 2026-04-26 21:18 | -20.31592 | -40.69665 | 7125 ft | 306 kts | 101° |
| 2026-04-26 21:19 | -20.31969 | -40.67459 | 6732 ft | 300 kts | 101° |
| 2026-04-26 21:19 | -20.32333 | -40.65324 | 6464 ft | 291 kts | 101° |
| 2026-04-26 21:19 | -20.32695 | -40.63203 | 6190 ft | 288 kts | 101° |
| 2026-04-26 21:19 | -20.33046 | -40.61138 | 5927 ft | 286 kts | 101° |
| 2026-04-26 21:20 | -20.33399 | -40.59063 | 5690 ft | 280 kts | 101° |
| 2026-04-26 21:20 | -20.33739 | -40.57069 | 5634 ft | 266 kts | 101° |
| 2026-04-26 21:20 | -20.34062 | -40.55168 | 5612 ft | 252 kts | 101° |
| 2026-04-26 21:20 | -20.34368 | -40.53367 | 5593 ft | 239 kts | 101° |
| 2026-04-26 21:21 | -20.34657 | -40.51666 | 5574 ft | 228 kts | 101° |
| 2026-04-26 21:21 | -20.34933 | -40.50034 | 5554 ft | 217 kts | 101° |
| 2026-04-26 21:21 | -20.35197 | -40.48481 | 5542 ft | 215 kts | 101° |
| 2026-04-26 21:21 | -20.35764 | -40.47014 | 5557 ft | 215 kts | 130° |
| 2026-04-26 21:22 | -20.36741 | -40.45791 | 5579 ft | 219 kts | 131° |
| 2026-04-26 21:22 | -20.37765 | -40.44500 | 5402 ft | 233 kts | 131° |
| 2026-04-26 21:22 | -20.38811 | -40.43183 | 5176 ft | 239 kts | 131° |
| 2026-04-26 21:23 | -20.41026 | -40.40396 | 4508 ft | 247 kts | 131° |
| 2026-04-26 21:23 | -20.42140 | -40.38993 | 4162 ft | 250 kts | 131° |
| 2026-04-26 21:23 | -20.43267 | -40.37575 | 3779 ft | 254 kts | 131° |
| 2026-04-26 21:23 | -20.44234 | -40.35987 | 3397 ft | 254 kts | 108° |
| 2026-04-26 21:24 | -20.44343 | -40.34180 | 3038 ft | 240 kts | 80° |
| 2026-04-26 21:24 | -20.44103 | -40.32460 | 2665 ft | 230 kts | 81° |
| 2026-04-26 21:24 | -20.43891 | -40.30840 | 2522 ft | 205 kts | 81° |
| 2026-04-26 21:24 | -20.43709 | -40.29452 | 2468 ft | 173 kts | 80° |
| 2026-04-26 21:25 | -20.43545 | -40.28206 | 2495 ft | 171 kts | 80° |
| 2026-04-26 21:25 | -20.43379 | -40.26951 | 2500 ft | 174 kts | 79° |
| 2026-04-26 21:25 | -20.43169 | -40.25698 | 2485 ft | 169 kts | 65° |
| 2026-04-26 21:25 | -20.42387 | -40.24854 | 2538 ft | 154 kts | 19° |
| 2026-04-26 21:26 | -20.41371 | -40.24904 | 2548 ft | 147 kts | 334° |
| 2026-04-26 21:26 | -20.40467 | -40.25441 | 2440 ft | 149 kts | 340° |
| 2026-04-26 21:26 | -20.39455 | -40.25691 | 2329 ft | 150 kts | 356° |
| 2026-04-26 21:26 | -20.38425 | -40.25875 | 2217 ft | 152 kts | 346° |
| 2026-04-26 21:27 | -20.37415 | -40.26258 | 2100 ft | 153 kts | 345° |
| 2026-04-26 21:27 | -20.36371 | -40.26418 | 1990 ft | 153 kts | 354° |
| 2026-04-26 21:27 | -20.35294 | -40.26556 | 1870 ft | 154 kts | 353° |
| 2026-04-26 21:27 | -20.34226 | -40.26703 | 1680 ft | 152 kts | 355° |
| 2026-04-26 21:28 | -20.33171 | -40.26832 | 1219 ft | 156 kts | 352° |
| 2026-04-26 21:28 | -20.32148 | -40.27020 | 967 ft | 143 kts | 353° |
| 2026-04-26 21:28 | -20.31202 | -40.27145 | 750 ft | 131 kts | 355° |
| 2026-04-26 21:28 | -20.30316 | -40.27291 | 622 ft | 127 kts | 353° |
| 2026-04-26 21:29 | -20.29429 | -40.27420 | 536 ft | 129 kts | 356° |
| 2026-04-26 21:29 | -20.28537 | -40.27556 | 444 ft | 125 kts | 352° |
| 2026-04-26 21:29 | -20.27700 | -40.27688 | 237 ft | 125 kts | 359° |
| 2026-04-26 21:29 | -20.26858 | -40.27815 | 87 ft | 116 kts | 355° |
| 2026-04-26 21:30 | -20.26105 | -40.27922 | 18 ft | 97 kts | 354° |
| 2026-04-26 21:30 | -20.25560 | -40.28001 | 18 ft | 64 kts | 352° |
| 2026-04-26 21:30 | -20.25260 | -40.28051 | 17 ft | 15 kts | 341° |
| 2026-04-26 21:30 | -20.25234 | -40.28081 | 17 ft | 6 kts | 289° |
| 2026-04-26 21:31 | -20.25257 | -40.28124 | 17 ft | 8 kts | 213° |
| 2026-04-26 21:31 | -20.25317 | -40.28163 | 17 ft | 11 kts | 212° |
| 2026-04-26 21:31 | -20.25400 | -40.28204 | 17 ft | 12 kts | 184° |
| 2026-04-26 21:31 | -20.25468 | -40.28194 | 17 ft | 11 kts | 169° |
| 2026-04-26 21:32 | -20.25558 | -40.28179 | 18 ft | 14 kts | 171° |
| 2026-04-26 21:32 | -20.25656 | -40.28165 | 18 ft | 14 kts | 173° |
| 2026-04-26 21:32 | -20.25756 | -40.28149 | 18 ft | 14 kts | 171° |
| 2026-04-26 21:32 | -20.25852 | -40.28132 | 18 ft | 14 kts | 169° |
| 2026-04-26 21:33 | -20.25921 | -40.28122 | 18 ft | 8 kts | 179° |
| 2026-04-26 21:33 | -20.26000 | -40.28114 | 18 ft | 18 kts | 171° |
| 2026-04-26 21:33 | -20.26152 | -40.28092 | 18 ft | 22 kts | 173° |
| 2026-04-26 21:33 | -20.26298 | -40.28077 | 18 ft | 17 kts | 191° |
| 2026-04-26 21:34 | -20.26345 | -40.28142 | 18 ft | 7 kts | 260° |
| 2026-04-26 21:34 | -20.26351 | -40.28187 | 18 ft | 2 kts | 262° |
| 2026-04-26 21:34 | -20.26352 | -40.28195 | 18 ft | 0 kts | 263° |